sensor_id;sensor_type;location;lat;lon;timestamp;pressure;altitude;pressure_sealevel;temperature;humidity
28448;BME280;15675;52.870;-1.416;2023-02-10T00:01:08;103021.94;;;4.88;93.44
28448;BME280;15675;52.870;-1.416;2023-02-10T00:03:34;103025.06;;;4.97;92.39
28448;BME280;15675;52.870;-1.416;2023-02-10T00:06:00;103025.09;;;4.70;92.39
28448;BME280;15675;52.870;-1.416;2023-02-10T00:08:26;103021.75;;;4.84;93.08
28448;BME280;15675;52.870;-1.416;2023-02-10T00:10:59;103026.19;;;4.74;92.23
28448;BME280;15675;52.870;-1.416;2023-02-10T00:13:25;103030.72;;;5.05;91.54
28448;BME280;15675;52.870;-1.416;2023-02-10T00:15:51;103027.69;;;4.83;91.65
28448;BME280;15675;52.870;-1.416;2023-02-10T00:18:16;103022.94;;;4.76;92.32
28448;BME280;15675;52.870;-1.416;2023-02-10T00:20:43;103015.56;;;4.96;92.22
28448;BME280;15675;52.870;-1.416;2023-02-10T00:23:08;103012.63;;;4.90;91.32
28448;BME280;15675;52.870;-1.416;2023-02-10T00:25:37;103017.91;;;5.19;89.48
28448;BME280;15675;52.870;-1.416;2023-02-10T00:28:03;103017.38;;;4.83;88.54
28448;BME280;15675;52.870;-1.416;2023-02-10T00:30:30;103014.22;;;4.74;90.06
28448;BME280;15675;52.870;-1.416;2023-02-10T00:32:56;103008.84;;;4.44;91.43
28448;BME280;15675;52.870;-1.416;2023-02-10T00:35:22;103011.16;;;4.40;92.90
28448;BME280;15675;52.870;-1.416;2023-02-10T00:37:47;103012.84;;;4.66;93.59
28448;BME280;15675;52.870;-1.416;2023-02-10T00:40:13;103006.31;;;4.84;92.70
28448;BME280;15675;52.870;-1.416;2023-02-10T00:42:39;103010.66;;;4.45;91.18
28448;BME280;15675;52.870;-1.416;2023-02-10T00:45:04;103007.16;;;4.31;92.33
28448;BME280;15675;52.870;-1.416;2023-02-10T00:47:30;103008.97;;;4.32;92.61
28448;BME280;15675;52.870;-1.416;2023-02-10T00:49:56;103005.22;;;4.41;92.59
28448;BME280;15675;52.870;-1.416;2023-02-10T00:52:22;103010.03;;;4.09;93.08
28448;BME280;15675;52.870;-1.416;2023-02-10T00:54:48;103012.50;;;4.21;93.02
28448;BME280;15675;52.870;-1.416;2023-02-10T00:57:14;103001.84;;;3.90;93.02
28448;BME280;15675;52.870;-1.416;2023-02-10T00:59:39;103009.59;;;4.03;92.79
28448;BME280;15675;52.870;-1.416;2023-02-10T01:02:05;103006.63;;;3.97;93.78
28448;BME280;15675;52.870;-1.416;2023-02-10T01:04:31;103007.47;;;3.84;93.75
28448;BME280;15675;52.870;-1.416;2023-02-10T01:06:56;103016.16;;;3.86;94.74
28448;BME280;15675;52.870;-1.416;2023-02-10T01:09:21;103015.56;;;4.15;92.63
28448;BME280;15675;52.870;-1.416;2023-02-10T01:11:47;103007.00;;;4.42;89.47
28448;BME280;15675;52.870;-1.416;2023-02-10T01:14:12;103016.59;;;4.58;85.85
28448;BME280;15675;52.870;-1.416;2023-02-10T01:16:39;103004.72;;;4.87;84.02
28448;BME280;15675;52.870;-1.416;2023-02-10T01:19:04;103003.56;;;4.55;79.94
28448;BME280;15675;52.870;-1.416;2023-02-10T01:21:31;103006.78;;;4.25;78.99
28448;BME280;15675;52.870;-1.416;2023-02-10T01:23:56;103002.66;;;3.63;78.90
28448;BME280;15675;52.870;-1.416;2023-02-10T01:26:22;103011.63;;;3.57;80.94
28448;BME280;15675;52.870;-1.416;2023-02-10T01:28:47;103014.97;;;4.06;81.09
28448;BME280;15675;52.870;-1.416;2023-02-10T01:31:15;103011.47;;;3.67;80.54
28448;BME280;15675;52.870;-1.416;2023-02-10T01:33:41;103015.53;;;4.02;80.88
28448;BME280;15675;52.870;-1.416;2023-02-10T01:36:10;103022.88;;;4.23;80.42
28448;BME280;15675;52.870;-1.416;2023-02-10T01:38:36;103020.03;;;4.31;79.74
28448;BME280;15675;52.870;-1.416;2023-02-10T01:41:03;103012.81;;;4.26;80.31
28448;BME280;15675;52.870;-1.416;2023-02-10T01:43:29;103008.66;;;4.41;79.18
28448;BME280;15675;52.870;-1.416;2023-02-10T01:45:55;103022.31;;;4.40;78.25
28448;BME280;15675;52.870;-1.416;2023-02-10T01:48:21;103022.56;;;4.05;77.22
28448;BME280;15675;52.870;-1.416;2023-02-10T01:53:16;103010.34;;;4.41;77.75
28448;BME280;15675;52.870;-1.416;2023-02-10T01:55:44;103004.44;;;4.42;77.00
28448;BME280;15675;52.870;-1.416;2023-02-10T01:58:14;102995.19;;;3.80;77.46
28448;BME280;15675;52.870;-1.416;2023-02-10T02:00:40;102997.75;;;3.55;78.94
28448;BME280;15675;52.870;-1.416;2023-02-10T02:03:06;103002.84;;;3.41;80.44
28448;BME280;15675;52.870;-1.416;2023-02-10T02:05:37;103009.38;;;3.24;82.61
28448;BME280;15675;52.870;-1.416;2023-02-10T02:16:07;102975.53;;;2.93;96.26
28448;BME280;15675;52.870;-1.416;2023-02-10T02:21:59;102991.16;;;2.96;100.00
28448;BME280;15675;52.870;-1.416;2023-02-10T02:28:00;103001.50;;;3.09;100.00
28448;BME280;15675;52.870;-1.416;2023-02-10T02:33:19;103013.50;;;2.62;100.00
28448;BME280;15675;52.870;-1.416;2023-02-10T02:35:53;103000.00;;;2.52;100.00
28448;BME280;15675;52.870;-1.416;2023-02-10T02:38:19;102983.06;;;2.78;100.00
28448;BME280;15675;52.870;-1.416;2023-02-10T02:40:45;102973.59;;;3.14;100.00
28448;BME280;15675;52.870;-1.416;2023-02-10T02:43:11;102983.88;;;3.14;100.00
28448;BME280;15675;52.870;-1.416;2023-02-10T02:45:56;102986.75;;;3.19;100.00
28448;BME280;15675;52.870;-1.416;2023-02-10T02:51:33;102973.09;;;3.32;100.00
28448;BME280;15675;52.870;-1.416;2023-02-10T02:54:24;102974.47;;;3.26;100.00
28448;BME280;15675;52.870;-1.416;2023-02-10T02:56:58;102976.72;;;3.47;100.00
28448;BME280;15675;52.870;-1.416;2023-02-10T02:59:40;102967.94;;;3.43;100.00
28448;BME280;15675;52.870;-1.416;2023-02-10T03:02:13;102955.88;;;3.31;100.00
28448;BME280;15675;52.870;-1.416;2023-02-10T03:04:40;102956.34;;;3.37;100.00
28448;BME280;15675;52.870;-1.416;2023-02-10T03:07:06;102949.59;;;3.39;100.00
28448;BME280;15675;52.870;-1.416;2023-02-10T03:09:33;102937.50;;;3.50;100.00
28448;BME280;15675;52.870;-1.416;2023-02-10T03:11:59;102926.38;;;3.62;100.00
28448;BME280;15675;52.870;-1.416;2023-02-10T03:14:24;102933.41;;;3.65;100.00
28448;BME280;15675;52.870;-1.416;2023-02-10T03:16:50;102926.00;;;3.56;100.00
28448;BME280;15675;52.870;-1.416;2023-02-10T03:19:16;102924.31;;;3.57;100.00
28448;BME280;15675;52.870;-1.416;2023-02-10T03:21:42;102928.22;;;3.90;100.00
28448;BME280;15675;52.870;-1.416;2023-02-10T03:24:07;102924.16;;;3.80;100.00
28448;BME280;15675;52.870;-1.416;2023-02-10T03:26:35;102921.41;;;4.04;100.00
28448;BME280;15675;52.870;-1.416;2023-02-10T03:29:01;102918.72;;;4.70;100.00
28448;BME280;15675;52.870;-1.416;2023-02-10T03:31:27;102913.00;;;4.20;100.00
28448;BME280;15675;52.870;-1.416;2023-02-10T03:33:52;102907.44;;;3.10;100.00
28448;BME280;15675;52.870;-1.416;2023-02-10T03:36:18;102904.06;;;2.86;100.00
28448;BME280;15675;52.870;-1.416;2023-02-10T03:38:44;102911.19;;;2.90;100.00
28448;BME280;15675;52.870;-1.416;2023-02-10T03:41:11;102927.59;;;2.80;100.00
28448;BME280;15675;52.870;-1.416;2023-02-10T03:43:38;102921.47;;;3.40;100.00
28448;BME280;15675;52.870;-1.416;2023-02-10T03:46:04;102924.09;;;3.92;100.00
28448;BME280;15675;52.870;-1.416;2023-02-10T03:48:30;102927.81;;;3.71;100.00
28448;BME280;15675;52.870;-1.416;2023-02-10T03:51:00;102920.41;;;3.89;98.02
28448;BME280;15675;52.870;-1.416;2023-02-10T03:53:27;102917.94;;;3.52;96.73
28448;BME280;15675;52.870;-1.416;2023-02-10T03:55:53;102910.59;;;3.31;96.75
28448;BME280;15675;52.870;-1.416;2023-02-10T03:58:18;102918.00;;;3.65;98.03
28448;BME280;15675;52.870;-1.416;2023-02-10T04:00:44;102911.84;;;4.15;98.65
28448;BME280;15675;52.870;-1.416;2023-02-10T04:03:10;102911.13;;;4.58;97.38
28448;BME280;15675;52.870;-1.416;2023-02-10T04:05:35;102912.53;;;4.39;95.53
28448;BME280;15675;52.870;-1.416;2023-02-10T04:08:01;102903.09;;;4.53;93.37
28448;BME280;15675;52.870;-1.416;2023-02-10T04:10:27;102911.19;;;4.73;91.63
28448;BME280;15675;52.870;-1.416;2023-02-10T04:12:52;102900.75;;;4.56;88.93
28448;BME280;15675;52.870;-1.416;2023-02-10T04:15:18;102894.44;;;4.38;85.92
28448;BME280;15675;52.870;-1.416;2023-02-10T04:17:44;102892.75;;;4.11;83.35
28448;BME280;15675;52.870;-1.416;2023-02-10T04:20:10;102893.22;;;3.79;81.50
28448;BME280;15675;52.870;-1.416;2023-02-10T04:22:36;102892.66;;;3.96;80.95
28448;BME280;15675;52.870;-1.416;2023-02-10T04:25:01;102883.25;;;4.10;80.73
28448;BME280;15675;52.870;-1.416;2023-02-10T04:27:27;102889.50;;;4.14;80.30
28448;BME280;15675;52.870;-1.416;2023-02-10T04:29:52;102880.81;;;4.12;79.83
28448;BME280;15675;52.870;-1.416;2023-02-10T04:32:18;102868.44;;;4.20;78.88
28448;BME280;15675;52.870;-1.416;2023-02-10T04:34:43;102871.97;;;3.68;78.06
28448;BME280;15675;52.870;-1.416;2023-02-10T04:37:09;102876.00;;;3.26;78.07
28448;BME280;15675;52.870;-1.416;2023-02-10T04:39:35;102878.91;;;2.93;78.54
28448;BME280;15675;52.870;-1.416;2023-02-10T04:42:00;102881.63;;;2.83;77.70
28448;BME280;15675;52.870;-1.416;2023-02-10T04:44:26;102880.09;;;2.73;77.78
28448;BME280;15675;52.870;-1.416;2023-02-10T04:46:51;102883.25;;;2.57;79.94
28448;BME280;15675;52.870;-1.416;2023-02-10T04:49:17;102888.75;;;2.38;82.53
28448;BME280;15675;52.870;-1.416;2023-02-10T04:51:43;102896.13;;;2.46;85.85
28448;BME280;15675;52.870;-1.416;2023-02-10T04:54:08;102896.41;;;2.99;88.10
28448;BME280;15675;52.870;-1.416;2023-02-10T04:56:34;102903.59;;;2.91;89.18
28448;BME280;15675;52.870;-1.416;2023-02-10T04:58:59;102887.03;;;3.25;90.29
28448;BME280;15675;52.870;-1.416;2023-02-10T05:01:25;102891.22;;;3.36;90.34
28448;BME280;15675;52.870;-1.416;2023-02-10T05:03:50;102893.56;;;3.45;89.94
28448;BME280;15675;52.870;-1.416;2023-02-10T05:06:16;102903.47;;;3.27;90.45
28448;BME280;15675;52.870;-1.416;2023-02-10T05:08:42;102903.75;;;3.32;90.89
28448;BME280;15675;52.870;-1.416;2023-02-10T05:11:13;102910.13;;;3.37;92.09
28448;BME280;15675;52.870;-1.416;2023-02-10T05:13:38;102915.47;;;3.92;92.77
28448;BME280;15675;52.870;-1.416;2023-02-10T05:16:06;102901.16;;;4.22;93.81
28448;BME280;15675;52.870;-1.416;2023-02-10T05:18:32;102901.16;;;4.09;92.76
28448;BME280;15675;52.870;-1.416;2023-02-10T05:20:58;102902.75;;;4.07;92.54
28448;BME280;15675;52.870;-1.416;2023-02-10T05:23:25;102908.72;;;3.67;91.43
28448;BME280;15675;52.870;-1.416;2023-02-10T05:25:51;102903.91;;;3.85;91.10
28448;BME280;15675;52.870;-1.416;2023-02-10T05:28:17;102898.09;;;4.01;90.21
28448;BME280;15675;52.870;-1.416;2023-02-10T05:30:42;102895.31;;;4.11;89.70
28448;BME280;15675;52.870;-1.416;2023-02-10T05:33:08;102896.09;;;3.97;87.90
28448;BME280;15675;52.870;-1.416;2023-02-10T05:35:33;102908.03;;;3.83;87.92
28448;BME280;15675;52.870;-1.416;2023-02-10T05:37:59;102898.47;;;3.42;87.51
28448;BME280;15675;52.870;-1.416;2023-02-10T05:40:27;102900.34;;;3.44;87.65
28448;BME280;15675;52.870;-1.416;2023-02-10T05:42:53;102899.34;;;2.92;89.64
28448;BME280;15675;52.870;-1.416;2023-02-10T05:45:19;102897.97;;;2.60;93.66
28448;BME280;15675;52.870;-1.416;2023-02-10T05:47:44;102901.69;;;2.40;98.14
28448;BME280;15675;52.870;-1.416;2023-02-10T05:50:10;102902.44;;;2.51;100.00
28448;BME280;15675;52.870;-1.416;2023-02-10T05:52:36;102899.78;;;2.61;100.00
28448;BME280;15675;52.870;-1.416;2023-02-10T05:55:01;102899.41;;;2.68;100.00
28448;BME280;15675;52.870;-1.416;2023-02-10T05:57:27;102892.91;;;3.36;100.00
28448;BME280;15675;52.870;-1.416;2023-02-10T05:59:52;102891.97;;;2.97;100.00
28448;BME280;15675;52.870;-1.416;2023-02-10T06:02:18;102894.41;;;3.07;100.00
28448;BME280;15675;52.870;-1.416;2023-02-10T06:04:44;102893.00;;;2.87;100.00
28448;BME280;15675;52.870;-1.416;2023-02-10T06:07:09;102883.94;;;2.92;100.00
28448;BME280;15675;52.870;-1.416;2023-02-10T06:09:35;102881.81;;;2.98;100.00
28448;BME280;15675;52.870;-1.416;2023-02-10T06:12:00;102886.00;;;3.35;100.00
28448;BME280;15675;52.870;-1.416;2023-02-10T06:14:27;102884.34;;;3.10;100.00
28448;BME280;15675;52.870;-1.416;2023-02-10T06:16:52;102875.63;;;2.83;100.00
28448;BME280;15675;52.870;-1.416;2023-02-10T06:19:18;102867.72;;;2.68;100.00
28448;BME280;15675;52.870;-1.416;2023-02-10T06:21:43;102880.56;;;2.68;100.00
28448;BME280;15675;52.870;-1.416;2023-02-10T06:24:09;102869.13;;;2.39;100.00
28448;BME280;15675;52.870;-1.416;2023-02-10T06:26:36;102855.78;;;2.19;100.00
28448;BME280;15675;52.870;-1.416;2023-02-10T06:29:01;102856.66;;;2.08;100.00
28448;BME280;15675;52.870;-1.416;2023-02-10T06:31:27;102851.53;;;2.08;100.00
28448;BME280;15675;52.870;-1.416;2023-02-10T06:33:53;102849.13;;;2.10;100.00
28448;BME280;15675;52.870;-1.416;2023-02-10T06:36:18;102862.94;;;2.12;100.00
28448;BME280;15675;52.870;-1.416;2023-02-10T06:38:44;102859.69;;;2.26;100.00
28448;BME280;15675;52.870;-1.416;2023-02-10T06:41:09;102847.22;;;2.19;100.00
28448;BME280;15675;52.870;-1.416;2023-02-10T06:43:35;102833.72;;;2.21;100.00
28448;BME280;15675;52.870;-1.416;2023-02-10T06:46:00;102815.69;;;2.20;100.00
28448;BME280;15675;52.870;-1.416;2023-02-10T06:48:26;102827.13;;;2.25;100.00
28448;BME280;15675;52.870;-1.416;2023-02-10T06:50:52;102838.78;;;2.45;100.00
28448;BME280;15675;52.870;-1.416;2023-02-10T06:53:18;102839.50;;;2.42;100.00
28448;BME280;15675;52.870;-1.416;2023-02-10T06:55:44;102835.56;;;2.48;100.00
28448;BME280;15675;52.870;-1.416;2023-02-10T06:58:10;102830.78;;;2.52;100.00
28448;BME280;15675;52.870;-1.416;2023-02-10T07:00:36;102850.03;;;2.59;100.00
28448;BME280;15675;52.870;-1.416;2023-02-10T07:03:02;102839.97;;;2.62;100.00
28448;BME280;15675;52.870;-1.416;2023-02-10T07:05:28;102845.47;;;2.55;100.00
28448;BME280;15675;52.870;-1.416;2023-02-10T07:07:53;102851.09;;;2.74;100.00
28448;BME280;15675;52.870;-1.416;2023-02-10T07:10:20;102839.56;;;2.56;100.00
28448;BME280;15675;52.870;-1.416;2023-02-10T07:12:46;102841.81;;;2.51;100.00
28448;BME280;15675;52.870;-1.416;2023-02-10T07:15:17;102841.25;;;2.55;100.00
28448;BME280;15675;52.870;-1.416;2023-02-10T07:17:44;102841.72;;;2.50;100.00
28448;BME280;15675;52.870;-1.416;2023-02-10T07:20:11;102847.09;;;2.78;100.00
28448;BME280;15675;52.870;-1.416;2023-02-10T07:22:36;102836.72;;;2.76;100.00
28448;BME280;15675;52.870;-1.416;2023-02-10T07:25:02;102841.06;;;2.78;100.00
28448;BME280;15675;52.870;-1.416;2023-02-10T07:27:28;102836.06;;;2.67;100.00
28448;BME280;15675;52.870;-1.416;2023-02-10T07:29:53;102835.34;;;2.82;100.00
28448;BME280;15675;52.870;-1.416;2023-02-10T07:32:19;102845.72;;;3.08;100.00
28448;BME280;15675;52.870;-1.416;2023-02-10T07:34:44;102857.72;;;3.21;100.00
28448;BME280;15675;52.870;-1.416;2023-02-10T07:37:11;102855.13;;;3.08;100.00
28448;BME280;15675;52.870;-1.416;2023-02-10T07:39:37;102864.19;;;3.28;100.00
28448;BME280;15675;52.870;-1.416;2023-02-10T07:42:03;102870.47;;;3.20;100.00
28448;BME280;15675;52.870;-1.416;2023-02-10T07:44:29;102872.59;;;2.88;100.00
28448;BME280;15675;52.870;-1.416;2023-02-10T07:46:54;102871.66;;;3.00;100.00
28448;BME280;15675;52.870;-1.416;2023-02-10T07:49:20;102868.38;;;3.14;100.00
28448;BME280;15675;52.870;-1.416;2023-02-10T07:51:46;102881.88;;;3.11;100.00
28448;BME280;15675;52.870;-1.416;2023-02-10T07:54:11;102882.75;;;3.12;100.00
28448;BME280;15675;52.870;-1.416;2023-02-10T07:56:37;102879.97;;;3.09;100.00
28448;BME280;15675;52.870;-1.416;2023-02-10T07:59:03;102871.00;;;3.02;100.00
28448;BME280;15675;52.870;-1.416;2023-02-10T08:01:28;102867.72;;;3.05;100.00
28448;BME280;15675;52.870;-1.416;2023-02-10T08:03:54;102851.59;;;2.94;100.00
28448;BME280;15675;52.870;-1.416;2023-02-10T08:06:23;102864.22;;;3.16;100.00
28448;BME280;15675;52.870;-1.416;2023-02-10T08:08:49;102856.56;;;3.04;100.00
28448;BME280;15675;52.870;-1.416;2023-02-10T08:11:16;102855.72;;;3.17;100.00
28448;BME280;15675;52.870;-1.416;2023-02-10T08:13:42;102846.94;;;3.14;100.00
28448;BME280;15675;52.870;-1.416;2023-02-10T08:16:09;102844.78;;;3.20;100.00
28448;BME280;15675;52.870;-1.416;2023-02-10T08:18:37;102854.78;;;3.28;100.00
28448;BME280;15675;52.870;-1.416;2023-02-10T08:21:05;102853.31;;;3.32;100.00
28448;BME280;15675;52.870;-1.416;2023-02-10T08:23:30;102839.31;;;3.40;100.00
28448;BME280;15675;52.870;-1.416;2023-02-10T08:25:56;102846.22;;;3.41;100.00
28448;BME280;15675;52.870;-1.416;2023-02-10T08:28:22;102850.00;;;3.60;100.00
28448;BME280;15675;52.870;-1.416;2023-02-10T08:30:47;102838.88;;;3.59;100.00
28448;BME280;15675;52.870;-1.416;2023-02-10T08:33:13;102851.03;;;3.75;100.00
28448;BME280;15675;52.870;-1.416;2023-02-10T08:35:39;102857.56;;;3.97;100.00
28448;BME280;15675;52.870;-1.416;2023-02-10T08:38:05;102853.81;;;4.05;100.00
28448;BME280;15675;52.870;-1.416;2023-02-10T08:40:32;102838.00;;;4.12;100.00
28448;BME280;15675;52.870;-1.416;2023-02-10T08:42:58;102842.31;;;4.27;100.00
28448;BME280;15675;52.870;-1.416;2023-02-10T08:45:24;102840.28;;;4.08;100.00
28448;BME280;15675;52.870;-1.416;2023-02-10T08:47:50;102850.81;;;4.39;100.00
28448;BME280;15675;52.870;-1.416;2023-02-10T08:50:15;102847.38;;;4.67;100.00
28448;BME280;15675;52.870;-1.416;2023-02-10T08:52:41;102840.66;;;4.56;100.00
28448;BME280;15675;52.870;-1.416;2023-02-10T08:55:07;102856.09;;;4.69;100.00
28448;BME280;15675;52.870;-1.416;2023-02-10T08:57:33;102862.13;;;4.70;100.00
28448;BME280;15675;52.870;-1.416;2023-02-10T08:59:59;102862.31;;;4.73;100.00
28448;BME280;15675;52.870;-1.416;2023-02-10T09:02:25;102861.88;;;4.80;100.00
28448;BME280;15675;52.870;-1.416;2023-02-10T09:04:51;102846.63;;;4.83;100.00
28448;BME280;15675;52.870;-1.416;2023-02-10T09:07:16;102862.03;;;4.96;100.00
28448;BME280;15675;52.870;-1.416;2023-02-10T09:09:43;102854.91;;;5.21;100.00
28448;BME280;15675;52.870;-1.416;2023-02-10T09:12:11;102851.41;;;5.20;100.00
28448;BME280;15675;52.870;-1.416;2023-02-10T09:14:38;102854.63;;;5.16;100.00
28448;BME280;15675;52.870;-1.416;2023-02-10T09:17:04;102861.00;;;5.08;100.00
28448;BME280;15675;52.870;-1.416;2023-02-10T09:19:29;102861.19;;;5.11;100.00
28448;BME280;15675;52.870;-1.416;2023-02-10T09:21:55;102862.41;;;5.03;100.00
28448;BME280;15675;52.870;-1.416;2023-02-10T09:24:21;102872.69;;;5.03;100.00
28448;BME280;15675;52.870;-1.416;2023-02-10T09:26:47;102874.06;;;5.26;100.00
28448;BME280;15675;52.870;-1.416;2023-02-10T09:29:13;102876.53;;;5.09;100.00
28448;BME280;15675;52.870;-1.416;2023-02-10T09:31:38;102876.38;;;5.21;100.00
28448;BME280;15675;52.870;-1.416;2023-02-10T09:34:04;102862.81;;;4.95;100.00
28448;BME280;15675;52.870;-1.416;2023-02-10T09:36:30;102869.00;;;5.12;100.00
28448;BME280;15675;52.870;-1.416;2023-02-10T09:38:56;102870.53;;;5.24;100.00
28448;BME280;15675;52.870;-1.416;2023-02-10T09:41:41;102867.25;;;5.41;100.00
28448;BME280;15675;52.870;-1.416;2023-02-10T09:46:50;102877.28;;;5.36;100.00
28448;BME280;15675;52.870;-1.416;2023-02-10T09:52:54;102863.00;;;5.57;100.00
28448;BME280;15675;52.870;-1.416;2023-02-10T09:55:29;102853.50;;;5.41;100.00
28448;BME280;15675;52.870;-1.416;2023-02-10T09:58:03;102849.31;;;5.43;100.00
28448;BME280;15675;52.870;-1.416;2023-02-10T10:00:34;102837.56;;;5.33;100.00
28448;BME280;15675;52.870;-1.416;2023-02-10T10:03:05;102843.81;;;5.51;100.00
28448;BME280;15675;52.870;-1.416;2023-02-10T10:05:47;102853.16;;;5.34;100.00
28448;BME280;15675;52.870;-1.416;2023-02-10T10:08:35;102847.81;;;5.46;100.00
28448;BME280;15675;52.870;-1.416;2023-02-10T10:11:43;102853.31;;;5.52;100.00
28448;BME280;15675;52.870;-1.416;2023-02-10T10:14:01;102853.69;;;5.74;100.00
28448;BME280;15675;52.870;-1.416;2023-02-10T10:19:14;102850.81;;;5.54;100.00
28448;BME280;15675;52.870;-1.416;2023-02-10T10:22:05;102846.75;;;5.73;100.00
28448;BME280;15675;52.870;-1.416;2023-02-10T10:24:46;102861.22;;;5.85;100.00
28448;BME280;15675;52.870;-1.416;2023-02-10T10:30:18;102849.16;;;5.99;100.00
28448;BME280;15675;52.870;-1.416;2023-02-10T10:32:59;102861.91;;;6.13;100.00
28448;BME280;15675;52.870;-1.416;2023-02-10T10:35:39;102860.41;;;6.48;100.00
28448;BME280;15675;52.870;-1.416;2023-02-10T10:38:12;102860.72;;;6.37;100.00
28448;BME280;15675;52.870;-1.416;2023-02-10T10:40:39;102863.84;;;6.32;100.00
28448;BME280;15675;52.870;-1.416;2023-02-10T10:43:13;102860.56;;;6.51;100.00
28448;BME280;15675;52.870;-1.416;2023-02-10T10:45:46;102859.81;;;6.85;100.00
28448;BME280;15675;52.870;-1.416;2023-02-10T10:48:21;102857.88;;;6.97;100.00
28448;BME280;15675;52.870;-1.416;2023-02-10T10:50:52;102856.47;;;7.04;100.00
28448;BME280;15675;52.870;-1.416;2023-02-10T10:53:39;102851.97;;;6.67;100.00
28448;BME280;15675;52.870;-1.416;2023-02-10T10:56:11;102852.22;;;7.04;100.00
28448;BME280;15675;52.870;-1.416;2023-02-10T10:58:40;102851.66;;;6.94;100.00
28448;BME280;15675;52.870;-1.416;2023-02-10T11:01:08;102853.06;;;6.55;100.00
28448;BME280;15675;52.870;-1.416;2023-02-10T11:03:34;102858.09;;;6.85;100.00
28448;BME280;15675;52.870;-1.416;2023-02-10T11:06:16;102850.78;;;6.93;100.00
28448;BME280;15675;52.870;-1.416;2023-02-10T11:08:45;102853.56;;;7.31;100.00
28448;BME280;15675;52.870;-1.416;2023-02-10T11:11:17;102857.34;;;7.21;100.00
28448;BME280;15675;52.870;-1.416;2023-02-10T11:13:54;102842.06;;;7.42;100.00
28448;BME280;15675;52.870;-1.416;2023-02-10T11:16:21;102848.91;;;7.76;100.00
28448;BME280;15675;52.870;-1.416;2023-02-10T11:19:00;102840.22;;;7.74;100.00
28448;BME280;15675;52.870;-1.416;2023-02-10T11:21:37;102844.50;;;7.91;100.00
28448;BME280;15675;52.870;-1.416;2023-02-10T11:24:03;102845.81;;;8.19;100.00
28448;BME280;15675;52.870;-1.416;2023-02-10T11:26:40;102853.38;;;8.52;99.55
28448;BME280;15675;52.870;-1.416;2023-02-10T11:29:10;102842.28;;;8.17;97.95
28448;BME280;15675;52.870;-1.416;2023-02-10T11:31:36;102844.13;;;8.02;99.26
28448;BME280;15675;52.870;-1.416;2023-02-10T11:34:21;102847.28;;;7.78;100.00
28448;BME280;15675;52.870;-1.416;2023-02-10T11:36:49;102844.56;;;7.93;100.00
28448;BME280;15675;52.870;-1.416;2023-02-10T11:39:35;102842.66;;;8.07;100.00
28448;BME280;15675;52.870;-1.416;2023-02-10T11:42:34;102852.44;;;8.32;100.00
28448;BME280;15675;52.870;-1.416;2023-02-10T11:47:34;102826.09;;;8.03;100.00
28448;BME280;15675;52.870;-1.416;2023-02-10T11:50:00;102827.13;;;8.07;100.00
28448;BME280;15675;52.870;-1.416;2023-02-10T11:52:27;102831.00;;;8.35;100.00
28448;BME280;15675;52.870;-1.416;2023-02-10T11:54:55;102833.66;;;8.54;100.00
28448;BME280;15675;52.870;-1.416;2023-02-10T11:57:44;102829.44;;;8.38;100.00
28448;BME280;15675;52.870;-1.416;2023-02-10T12:00:47;102823.19;;;8.15;100.00
28448;BME280;15675;52.870;-1.416;2023-02-10T12:06:25;102818.50;;;8.44;100.00
28448;BME280;15675;52.870;-1.416;2023-02-10T12:17:26;102821.13;;;8.63;100.00
28448;BME280;15675;52.870;-1.416;2023-02-10T12:25:56;102817.53;;;8.60;100.00
28448;BME280;15675;52.870;-1.416;2023-02-10T12:30:58;102811.94;;;8.33;100.00
28448;BME280;15675;52.870;-1.416;2023-02-10T12:36:08;102806.59;;;8.48;100.00
28448;BME280;15675;52.870;-1.416;2023-02-10T12:41:25;102806.91;;;8.36;100.00
28448;BME280;15675;52.870;-1.416;2023-02-10T12:44:09;102799.81;;;8.13;100.00
28448;BME280;15675;52.870;-1.416;2023-02-10T12:52:02;102803.41;;;8.53;100.00
28448;BME280;15675;52.870;-1.416;2023-02-10T12:57:10;102802.41;;;8.50;100.00
28448;BME280;15675;52.870;-1.416;2023-02-10T13:02:46;102795.66;;;8.73;100.00
28448;BME280;15675;52.870;-1.416;2023-02-10T13:05:19;102803.06;;;8.45;100.00
28448;BME280;15675;52.870;-1.416;2023-02-10T13:08:11;102793.59;;;8.46;100.00
28448;BME280;15675;52.870;-1.416;2023-02-10T13:10:45;102777.47;;;8.34;100.00
28448;BME280;15675;52.870;-1.416;2023-02-10T13:13:20;102781.81;;;8.53;100.00
28448;BME280;15675;52.870;-1.416;2023-02-10T13:16:00;102778.88;;;8.45;100.00
28448;BME280;15675;52.870;-1.416;2023-02-10T13:18:30;102784.97;;;8.65;100.00
28448;BME280;15675;52.870;-1.416;2023-02-10T13:23:49;102764.94;;;8.61;100.00
28448;BME280;15675;52.870;-1.416;2023-02-10T13:32:24;102760.56;;;8.60;100.00
28448;BME280;15675;52.870;-1.416;2023-02-10T13:34:54;102748.97;;;8.71;100.00
28448;BME280;15675;52.870;-1.416;2023-02-10T13:37:43;102747.88;;;8.66;100.00
28448;BME280;15675;52.870;-1.416;2023-02-10T13:42:46;102738.56;;;8.70;100.00
28448;BME280;15675;52.870;-1.416;2023-02-10T13:47:41;102753.66;;;8.60;100.00
28448;BME280;15675;52.870;-1.416;2023-02-10T13:57:56;102754.34;;;8.95;100.00
28448;BME280;15675;52.870;-1.416;2023-02-10T14:00:25;102763.88;;;8.96;100.00
28448;BME280;15675;52.870;-1.416;2023-02-10T14:05:37;102747.72;;;9.02;100.00
28448;BME280;15675;52.870;-1.416;2023-02-10T14:08:13;102751.75;;;8.95;100.00
28448;BME280;15675;52.870;-1.416;2023-02-10T14:10:40;102735.13;;;9.11;100.00
28448;BME280;15675;52.870;-1.416;2023-02-10T14:13:21;102726.22;;;9.05;100.00
28448;BME280;15675;52.870;-1.416;2023-02-10T14:15:57;102733.09;;;9.04;100.00
28448;BME280;15675;52.870;-1.416;2023-02-10T14:18:25;102725.41;;;9.06;100.00
28448;BME280;15675;52.870;-1.416;2023-02-10T14:21:00;102724.94;;;8.95;100.00
28448;BME280;15675;52.870;-1.416;2023-02-10T14:23:30;102730.78;;;8.89;100.00
28448;BME280;15675;52.870;-1.416;2023-02-10T14:25:59;102738.91;;;8.98;100.00
28448;BME280;15675;52.870;-1.416;2023-02-10T14:28:29;102739.38;;;9.09;100.00